Time;durP1;ratioP1;P1;durP2;ratioP2;P2;SDS_P1;SDS_P2;PMS_P1;PMS_P2;Temp;Humidity;BMP_temperature;BMP_pressure;BME280_temperature;BME280_humidity;BME280_pressure;Samples;Min_cycle;Max_cycle;Signal;HPM_P1;HPM_P2
2022/10/09 00:01:21;;;;;;;7.70;2.80;;;;;;;9.52;100.00;100694.53;12215810;19;20363;-85
2022/10/09 00:05:25;;;;;;;7.30;3.25;;;;;;;9.51;100.00;100686.50;12208396;19;21208;-85
2022/10/09 00:09:30;;;;;;;10.80;3.38;;;;;;;9.49;100.00;100681.22;12219582;19;20018;-85
2022/10/09 00:13:32;;;;;;;5.50;2.53;;;;;;;9.47;100.00;100685.25;12213256;19;20006;-84
2022/10/09 00:17:33;;;;;;;9.32;3.08;;;;;;;9.47;100.00;100674.25;12193087;19;20002;-84
2022/10/09 00:21:35;;;;;;;7.32;3.20;;;;;;;9.47;100.00;100677.84;12211209;19;20491;-84
2022/10/09 00:25:37;;;;;;;5.47;2.97;;;;;;;9.44;100.00;100678.28;12214847;19;20365;-84
2022/10/09 00:29:38;;;;;;;7.33;2.87;;;;;;;9.42;100.00;100680.41;12204175;19;20030;-84
2022/10/09 00:33:40;;;;;;;6.57;2.70;;;;;;;9.39;100.00;100663.50;12228760;19;20042;-85
2022/10/09 00:37:42;;;;;;;10.23;3.05;;;;;;;9.36;100.00;100667.53;12224223;19;20086;-85
2022/10/09 00:41:44;;;;;;;5.75;2.83;;;;;;;9.32;100.00;100664.38;12198472;19;20094;-84
2022/10/09 00:45:55;;;;;;;7.75;2.80;;;;;;;9.29;100.00;100672.25;12222823;19;20094;-84
2022/10/09 00:50:16;;;;;;;8.45;3.20;;;;;;;9.26;100.00;100669.94;12218099;19;20015;-85
2022/10/09 00:54:23;;;;;;;6.63;3.10;;;;;;;9.25;100.00;100668.22;12198968;19;20021;-84
2022/10/09 00:58:25;;;;;;;9.15;3.45;;;;;;;9.24;100.00;100672.06;12215298;19;20106;-84
2022/10/09 01:02:26;;;;;;;7.70;2.53;;;;;;;9.22;100.00;100669.53;12196085;19;20106;-84
2022/10/09 01:06:52;;;;;;;6.65;2.65;;;;;;;9.19;100.00;100661.72;12197110;19;20031;-85
2022/10/09 01:11:04;;;;;;;6.90;2.88;;;;;;;9.14;100.00;100658.78;12215983;19;20027;-85
2022/10/09 01:15:22;;;;;;;9.25;3.42;;;;;;;9.05;100.00;100654.63;12192905;19;20034;-84
2022/10/09 01:20:01;;;;;;;8.93;3.10;;;;;;;8.93;100.00;100664.63;12214859;19;20006;-84
2022/10/09 01:24:28;;;;;;;11.93;3.25;;;;;;;8.81;100.00;100650.72;12242300;19;20049;-85
2022/10/09 01:28:30;;;;;;;5.68;2.70;;;;;;;8.75;100.00;100648.84;12259863;19;20479;-84
2022/10/09 01:32:36;;;;;;;8.45;3.38;;;;;;;8.63;100.00;100638.50;12197876;19;20404;-84
2022/10/09 01:36:39;;;;;;;9.57;3.08;;;;;;;8.52;100.00;100638.34;12223845;19;20014;-84
2022/10/09 01:40:41;;;;;;;7.05;3.17;;;;;;;8.40;100.00;100639.00;12220686;19;20054;-85
2022/10/09 01:44:42;;;;;;;4.83;3.03;;;;;;;8.32;100.00;100636.44;12191523;19;20006;-85
2022/10/09 01:48:55;;;;;;;11.35;3.33;;;;;;;8.20;100.00;100630.75;12217469;19;20006;-85
2022/10/09 01:53:09;;;;;;;8.43;3.38;;;;;;;8.09;100.00;100634.19;12217230;19;20411;-85
2022/10/09 01:57:15;;;;;;;8.38;3.55;;;;;;;7.98;100.00;100630.19;12195071;19;20010;-85
2022/10/09 02:01:23;;;;;;;8.10;3.65;;;;;;;7.85;100.00;100621.97;12214373;19;20043;-85
2022/10/09 02:05:29;;;;;;;10.52;3.47;;;;;;;7.72;100.00;100625.53;12192054;19;20470;-85
2022/10/09 02:09:32;;;;;;;5.82;3.40;;;;;;;7.62;100.00;100616.91;12212509;19;20420;-85
2022/10/09 02:13:35;;;;;;;14.77;4.28;;;;;;;7.53;100.00;100627.25;12210534;19;20027;-84
2022/10/09 02:17:44;;;;;;;8.85;4.07;;;;;;;7.42;100.00;100613.31;12201423;19;20011;-84
2022/10/09 02:22:00;;;;;;;7.57;3.80;;;;;;;7.35;100.00;100617.91;12211472;19;20033;-85
2022/10/09 02:26:02;;;;;;;8.65;3.80;;;;;;;7.25;100.00;100613.69;12211808;19;20006;-85
2022/10/09 02:30:07;;;;;;;9.20;3.67;;;;;;;7.21;100.00;100606.09;12183906;19;20010;-85
2022/10/09 02:34:12;;;;;;;7.78;4.45;;;;;;;7.11;100.00;100608.38;12210048;19;20015;-85
2022/10/09 02:38:14;;;;;;;10.27;4.40;;;;;;;7.06;100.00;100603.56;12208728;19;20002;-85
2022/10/09 02:42:16;;;;;;;11.55;4.05;;;;;;;7.02;100.00;100588.56;12183299;19;20011;-85
2022/10/09 02:46:18;;;;;;;9.07;4.80;;;;;;;6.96;100.00;100595.75;12210347;19;20007;-85
2022/10/09 02:50:19;;;;;;;9.43;4.63;;;;;;;6.97;100.00;100597.41;12208277;19;20037;-84
2022/10/09 02:54:21;;;;;;;8.52;3.95;;;;;;;7.03;100.00;100593.00;12194119;19;20014;-84
2022/10/09 02:58:23;;;;;;;7.13;3.90;;;;;;;7.15;100.00;100596.81;12220250;19;20030;-85
2022/10/09 03:02:25;;;;;;;12.13;4.18;;;;;;;7.28;100.00;100588.59;12199333;19;20006;-84
2022/10/09 03:06:57;;;;;;;9.23;4.17;;;;;;;7.42;100.00;100596.84;12217469;19;20021;-85
2022/10/09 03:11:00;;;;;;;;;;;;;;;7.56;100.00;100589.47;12241403;19;20014;-85
2022/10/09 03:15:02;;;;;;;9.48;3.75;;;;;;;7.70;100.00;100589.28;12198182;19;19903;-84
2022/10/09 03:19:04;;;;;;;9.15;3.58;;;;;;;7.81;100.00;100587.75;12220846;19;20380;-84
2022/10/09 03:23:05;;;;;;;6.25;3.85;;;;;;;7.92;100.00;100586.28;12218432;19;20018;-85
2022/10/09 03:27:07;;;;;;;11.48;3.78;;;;;;;8.04;100.00;100590.06;12199059;19;20027;-85
2022/10/09 03:31:09;;;;;;;8.52;3.60;;;;;;;8.14;100.00;100590.44;12221512;19;20018;-84
2022/10/09 03:35:31;;;;;;;10.18;3.58;;;;;;;8.20;100.00;100588.75;12203524;19;20037;-85
2022/10/09 03:39:33;;;;;;;8.70;3.22;;;;;;;8.28;100.00;100595.91;12220483;19;20141;-86
2022/10/09 03:43:35;;;;;;;9.20;3.40;;;;;;;8.33;100.00;100591.47;12218394;19;20010;-85
2022/10/09 03:47:37;;;;;;;10.68;3.47;;;;;;;8.41;100.00;100591.25;12201673;19;20006;-85
2022/10/09 03:51:39;;;;;;;11.43;3.40;;;;;;;8.52;100.00;100597.97;12222045;19;20014;-84
2022/10/09 03:55:41;;;;;;;11.63;3.08;;;;;;;8.53;100.00;100594.16;12222458;19;20018;-84
2022/10/09 03:59:42;;;;;;;8.77;3.15;;;;;;;8.55;100.00;100600.28;12200154;19;20022;-84
2022/10/09 04:03:44;;;;;;;7.00;3.45;;;;;;;8.59;100.00;100603.44;12220112;19;20018;-84
2022/10/09 04:07:46;;;;;;;12.90;3.70;;;;;;;8.60;100.00;100607.88;12219541;19;20010;-84
2022/10/09 04:11:47;;;;;;;8.00;3.50;;;;;;;8.56;100.00;100604.72;12199574;19;20583;-84
2022/10/09 04:15:51;;;;;;;8.55;3.08;;;;;;;8.58;100.00;100605.34;12222006;19;20019;-84
2022/10/09 04:19:53;;;;;;;7.88;3.13;;;;;;;8.58;100.00;100602.59;12223928;19;20059;-84
2022/10/09 04:23:54;;;;;;;10.32;2.92;;;;;;;8.53;100.00;100599.66;12201657;19;20683;-84
2022/10/09 04:27:56;;;;;;;12.23;3.45;;;;;;;8.47;100.00;100600.50;12225792;19;20033;-84
2022/10/09 04:31:58;;;;;;;7.38;3.30;;;;;;;8.47;100.00;100595.03;12223597;19;20038;-84
2022/10/09 04:35:59;;;;;;;11.52;3.53;;;;;;;8.47;100.00;100592.28;12202453;19;20010;-83
2022/10/09 04:40:01;;;;;;;7.82;3.60;;;;;;;8.44;100.00;100595.47;12240618;19;20043;-83
2022/10/09 04:44:03;;;;;;;9.18;3.70;;;;;;;8.47;100.00;100595.03;12279648;19;20003;-85
2022/10/09 04:48:04;;;;;;;8.95;4.07;;;;;;;8.44;100.00;100593.53;12251893;19;19999;-85
2022/10/09 04:52:06;;;;;;;10.40;3.65;;;;;;;8.44;100.00;100600.94;12235345;19;20018;-84
2022/10/09 04:56:11;;;;;;;8.25;3.92;;;;;;;8.42;100.00;100592.09;12226253;19;20015;-84
2022/10/09 05:00:13;;;;;;;12.00;4.25;;;;;;;8.37;100.00;100589.13;12204687;19;20047;-85
2022/10/09 05:04:15;;;;;;;13.65;4.30;;;;;;;8.29;100.00;100581.13;12223781;19;20515;-84
2022/10/09 05:08:16;;;;;;;8.07;4.20;;;;;;;8.26;100.00;100579.66;12226935;19;20007;-85
2022/10/09 05:12:18;;;;;;;8.95;4.07;;;;;;;8.21;100.00;100585.81;12202279;19;20022;-84
2022/10/09 05:16:25;;;;;;;9.93;4.18;;;;;;;8.20;100.00;100584.09;12226007;19;20002;-84
2022/10/09 05:20:27;;;;;;;9.07;3.92;;;;;;;8.17;100.00;100584.53;12201292;19;20344;-85
2022/10/09 05:24:29;;;;;;;8.48;3.85;;;;;;;8.16;100.00;100587.50;12222313;19;20014;-83
2022/10/09 05:28:32;;;;;;;10.23;4.13;;;;;;;8.15;100.00;100583.91;12222313;19;20476;-84
2022/10/09 05:32:33;;;;;;;6.30;3.65;;;;;;;8.16;100.00;100593.00;12195264;19;20377;-84
2022/10/09 05:36:35;;;;;;;6.57;3.88;;;;;;;8.13;100.00;100598.91;12220718;19;20022;-83
2022/10/09 05:40:37;;;;;;;6.85;4.28;;;;;;;8.12;100.00;100595.31;12221113;19;20034;-83
2022/10/09 05:44:38;;;;;;;11.15;4.25;;;;;;;8.12;100.00;100597.19;12199665;19;20471;-84
2022/10/09 05:48:43;;;;;;;9.13;3.60;;;;;;;8.13;100.00;100602.50;12217376;19;20452;-84
2022/10/09 05:52:44;;;;;;;9.20;4.57;;;;;;;8.12;100.00;100603.56;12214329;19;20078;-85
2022/10/09 05:56:46;;;;;;;9.63;4.85;;;;;;;8.11;100.00;100599.09;12196326;19;20087;-84
2022/10/09 06:00:48;;;;;;;6.55;3.70;;;;;;;8.12;100.00;100600.81;12213886;19;20795;-83
2022/10/09 06:04:50;;;;;;;8.65;4.00;;;;;;;8.15;100.00;100600.38;12187907;19;20028;-84
2022/10/09 06:08:52;;;;;;;9.73;4.15;;;;;;;8.21;100.00;100595.94;12197125;19;20468;-84
2022/10/09 06:12:55;;;;;;;11.70;4.30;;;;;;;8.26;100.00;100604.34;12214571;19;20010;-84
2022/10/09 06:16:57;;;;;;;7.88;4.18;;;;;;;8.29;100.00;100598.44;12217970;19;20252;-84
2022/10/09 06:21:00;;;;;;;11.18;4.47;;;;;;;8.38;100.00;100607.28;12197673;19;20496;-84
2022/10/09 06:25:02;;;;;;;15.88;7.45;;;;;;;8.47;100.00;100605.16;12220453;19;20014;-84
2022/10/09 06:29:04;;;;;;;15.45;7.82;;;;;;;8.53;100.00;100601.56;12230115;19;20010;-84
2022/10/09 06:33:05;;;;;;;18.30;6.82;;;;;;;8.56;100.00;100599.22;12221636;19;20069;-85
2022/10/09 06:37:07;;;;;;;11.88;6.00;;;;;;;8.61;100.00;100604.91;12283558;19;20034;-85
2022/10/09 06:41:17;;;;;;;17.15;8.02;;;;;;;8.65;100.00;100603.41;12277065;19;20011;-85
2022/10/09 06:45:19;;;;;;;13.30;4.70;;;;;;;8.73;100.00;100612.47;12253800;19;20002;-86
2022/10/09 06:49:20;;;;;;;12.70;6.65;;;;;;;8.81;100.00;100604.00;12247576;19;20014;-84
2022/10/09 06:53:22;;;;;;;9.57;5.40;;;;;;;8.88;100.00;100619.38;12231565;19;20464;-84
2022/10/09 06:57:24;;;;;;;7.35;4.43;;;;;;;8.97;100.00;100605.38;12214811;19;20014;-83
2022/10/09 07:01:30;;;;;;;8.23;5.30;;;;;;;9.16;100.00;100609.06;12235158;19;20020;-85
2022/10/09 07:05:32;;;;;;;14.05;5.43;;;;;;;9.29;100.00;100614.50;12213459;19;20006;-83
2022/10/09 07:09:34;;;;;;;7.78;4.53;;;;;;;9.36;100.00;100607.03;12232152;19;20011;-84
2022/10/09 07:13:36;;;;;;;8.45;4.38;;;;;;;9.48;100.00;100609.91;12240335;19;20034;-83
2022/10/09 07:17:39;;;;;;;10.57;3.88;;;;;;;9.59;100.00;100611.94;12240274;19;20035;-84
2022/10/09 07:21:42;;;;;;;11.35;4.00;;;;;;;9.78;100.00;100610.06;12250584;19;20372;-85
2022/10/09 07:25:44;;;;;;;9.57;4.30;;;;;;;9.98;100.00;100613.50;12240909;19;20021;-85
2022/10/09 07:29:46;;;;;;;10.73;3.70;;;;;;;10.14;100.00;100605.72;12217201;19;20390;-84
2022/10/09 07:33:49;;;;;;;7.20;3.90;;;;;;;10.33;100.00;100607.47;12233282;19;20003;-85
2022/10/09 07:37:51;;;;;;;10.77;4.18;;;;;;;10.48;100.00;100607.91;12235930;19;20006;-85
2022/10/09 07:41:53;;;;;;;5.40;3.65;;;;;;;10.66;100.00;100620.00;12206094;19;20007;-84
2022/10/09 07:45:58;;;;;;;9.30;3.72;;;;;;;10.83;100.00;100612.78;12226677;19;20103;-84
2022/10/09 07:50:00;;;;;;;11.10;4.05;;;;;;;11.03;100.00;100611.66;12230221;19;20006;-83
2022/10/09 07:54:02;;;;;;;10.57;4.28;;;;;;;11.25;100.00;100612.00;12204452;19;20085;-84
2022/10/09 07:58:04;;;;;;;6.53;3.87;;;;;;;11.51;100.00;100610.75;12228838;19;20015;-83
2022/10/09 08:02:07;;;;;;;8.82;3.58;;;;;;;11.75;100.00;100606.09;12226716;19;20065;-84
2022/10/09 08:06:09;;;;;;;10.40;3.90;;;;;;;11.96;100.00;100608.34;12208017;19;20012;-83
2022/10/09 08:10:11;;;;;;;8.25;3.95;;;;;;;12.14;98.26;100612.91;12227379;19;20014;-83
2022/10/09 08:14:15;;;;;;;9.60;3.72;;;;;;;12.44;97.16;100610.00;12225760;19;20056;-84
2022/10/09 08:18:20;;;;;;;11.52;4.28;;;;;;;12.75;95.39;100607.88;12198612;19;20012;-84
2022/10/09 08:22:21;;;;;;;8.55;3.40;;;;;;;12.93;91.91;100598.56;12222295;19;20034;-84
2022/10/09 08:26:25;;;;;;;7.10;3.92;;;;;;;13.12;90.47;100599.22;12220663;19;20007;-83
2022/10/09 08:30:26;;;;;;;7.72;3.20;;;;;;;13.34;89.12;100594.66;12206956;19;20072;-84
2022/10/09 08:34:28;;;;;;;9.63;3.10;;;;;;;13.60;87.63;100590.41;12224804;19;20010;-83
2022/10/09 08:38:30;;;;;;;8.15;2.75;;;;;;;13.73;84.36;100585.63;12207113;19;20127;-84
2022/10/09 08:43:02;;;;;;;10.43;3.22;;;;;;;13.90;83.64;100589.25;12227051;19;20033;-85
2022/10/09 08:47:20;;;;;;;5.07;3.13;;;;;;;14.01;81.59;100593.88;12223758;19;20003;-85
2022/10/09 08:51:25;;;;;;;8.07;2.97;;;;;;;13.99;80.22;100586.88;12207444;19;20021;-82
2022/10/09 08:55:34;;;;;;;8.95;3.35;;;;;;;14.16;80.69;100593.25;12225083;19;20014;-84
2022/10/09 08:59:36;;;;;;;5.97;3.00;;;;;;;14.33;80.15;100582.09;12202657;19;20011;-84
2022/10/09 09:03:52;;;;;;;8.43;3.05;;;;;;;14.42;79.01;100586.13;12227773;19;20056;-86
2022/10/09 09:08:17;;;;;;;9.52;3.42;;;;;;;14.43;78.05;100579.50;12230959;19;20046;-85
2022/10/09 09:12:57;;;;;;;6.43;2.92;;;;;;;14.61;77.21;100583.09;12205463;19;20014;-84
2022/10/09 09:17:47;;;;;;;5.85;2.38;;;;;;;14.81;75.56;100577.75;12224003;19;20070;-84
2022/10/09 09:21:51;;;;;;;6.07;2.75;;;;;;;15.05;75.03;100567.25;12201593;19;20042;-84
2022/10/09 09:25:53;;;;;;;6.18;2.90;;;;;;;15.24;76.17;100564.94;12223159;19;20028;-84
2022/10/09 09:29:58;;;;;;;10.52;3.17;;;;;;;15.35;73.88;100563.94;12210913;19;20426;-85
2022/10/09 09:34:12;;;;;;;6.40;3.13;;;;;;;15.32;73.33;100566.38;12226414;19;20007;-84
2022/10/09 09:38:14;;;;;;;6.35;3.22;;;;;;;15.39;73.56;100559.50;12227386;19;20026;-84
2022/10/09 09:42:18;;;;;;;9.03;3.37;;;;;;;15.55;72.87;100546.59;12210567;19;20017;-84
2022/10/09 09:46:26;;;;;;;6.20;2.70;;;;;;;15.61;72.52;100544.69;12228890;19;20014;-84
2022/10/09 09:50:31;;;;;;;5.07;2.67;;;;;;;15.66;72.10;100534.47;12226840;19;20030;-83
2022/10/09 09:54:56;;;;;;;4.05;2.75;;;;;;;15.95;71.80;100529.44;12201235;19;20082;-85
2022/10/09 09:58:57;;;;;;;8.32;2.58;;;;;;;16.22;70.72;100527.66;12231337;19;20007;-84
2022/10/09 10:03:15;;;;;;;7.20;2.53;;;;;;;16.35;68.33;100519.63;12215611;19;20363;-84
2022/10/09 10:07:31;;;;;;;6.32;2.50;;;;;;;16.56;68.34;100517.78;12253220;19;20007;-85
2022/10/09 10:11:34;;;;;;;7.07;2.03;;;;;;;16.56;65.12;100508.59;12223177;19;20010;-83
2022/10/09 10:15:36;;;;;;;3.47;1.65;;;;;;;16.60;63.83;100509.75;12248655;19;20428;-83
2022/10/09 10:19:38;;;;;;;6.22;1.73;;;;;;;16.73;64.00;100505.59;12235808;19;20014;-82
2022/10/09 10:23:51;;;;;;;3.78;1.83;;;;;;;16.80;64.43;100497.84;12224728;19;20007;-84
2022/10/09 10:27:59;;;;;;;5.50;1.88;;;;;;;16.83;62.50;100500.91;12249858;19;20010;-83
2022/10/09 10:32:24;;;;;;;3.80;1.85;;;;;;;16.77;61.68;100495.59;12239067;19;20356;-84
2022/10/09 10:36:27;;;;;;;6.03;2.20;;;;;;;16.89;62.92;100495.34;12219037;19;20118;-83
2022/10/09 10:40:40;;;;;;;;;;;;;;;17.00;61.56;100474.78;12238428;19;20042;-81
2022/10/09 10:44:47;;;;;;;;;;;;;;;17.11;61.04;100470.91;12219799;19;20269;-84
2022/10/09 10:48:50;;;;;;;3.33;1.60;;;;;;;17.14;57.00;100466.72;12239231;19;19911;-82
2022/10/09 10:53:15;;;;;;;;;;;;;;;17.36;58.07;100466.44;12236968;19;20038;-83
2022/10/09 10:57:44;;;;;;;9.15;2.22;;;;;;;17.57;58.72;100461.69;12219364;19;19918;-83
2022/10/09 11:02:31;;;;;;;5.20;2.10;;;;;;;17.72;56.55;100464.44;12239765;19;20389;-82
2022/10/09 11:06:51;;;;;;;4.75;2.10;;;;;;;17.84;55.76;100444.66;12209230;19;20015;-84
2022/10/09 11:11:05;;;;;;;5.22;1.92;;;;;;;17.88;53.39;100446.63;12234456;19;20015;-83
2022/10/09 11:15:25;;;;;;;3.70;1.52;;;;;;;18.09;53.72;100435.41;12208857;19;20007;-84
2022/10/09 11:19:26;;;;;;;5.95;2.92;;;;;;;18.08;51.62;100431.75;12219697;19;20007;-84
2022/10/09 11:23:46;;;;;;;7.90;1.80;;;;;;;18.21;51.34;100433.94;12162551;19;20010;-83
2022/10/09 11:28:00;;;;;;;4.60;1.67;;;;;;;18.48;50.34;100417.94;12224200;19;20022;-83
2022/10/09 11:32:25;;;;;;;3.20;1.30;;;;;;;18.80;48.69;100411.88;12219459;19;20003;-83
2022/10/09 11:36:35;;;;;;;3.53;1.63;;;;;;;18.96;45.41;100402.25;12204232;19;20088;-84
2022/10/09 11:40:41;;;;;;;3.15;1.13;;;;;;;19.62;46.98;100399.97;12222810;19;20014;-83
2022/10/09 11:45:03;;;;;;;9.82;1.80;;;;;;;20.37;46.41;100390.97;12208206;19;20038;-83
2022/10/09 11:49:21;;;;;;;3.60;1.40;;;;;;;20.95;44.92;100382.28;12281425;19;20034;-85
2022/10/09 11:53:26;;;;;;;6.57;1.83;;;;;;;21.08;42.30;100381.50;12250551;19;20033;-84
2022/10/09 11:57:29;;;;;;;4.93;1.73;;;;;;;21.61;44.12;100371.88;12210983;19;20066;-83
2022/10/09 12:01:32;;;;;;;;;;;;;;;21.84;42.25;100361.63;12272616;19;20007;-83
2022/10/09 12:05:39;;;;;;;4.18;1.90;;;;;;;22.26;42.02;100354.03;12254152;19;19919;-84
2022/10/09 12:09:47;;;;;;;2.42;1.23;;;;;;;22.43;39.37;100342.97;12244320;19;20018;-83
2022/10/09 12:13:55;;;;;;;2.67;1.33;;;;;;;22.90;38.72;100342.66;12215786;19;20268;-85
2022/10/09 12:17:57;;;;;;;2.28;1.25;;;;;;;23.01;37.96;100327.22;12197811;19;20540;-83
2022/10/09 12:22:11;;;;;;;3.53;1.27;;;;;;;23.33;36.23;100325.28;12213621;19;20892;-83
2022/10/09 12:26:15;;;;;;;5.85;1.92;;;;;;;23.70;37.33;100323.97;12212853;19;20006;-84
2022/10/09 12:30:20;;;;;;;2.97;1.67;;;;;;;24.02;36.92;100317.13;12196192;19;20129;-84
2022/10/09 12:34:28;;;;;;;4.65;1.45;;;;;;;23.95;35.26;100305.53;12214882;19;20522;-82
2022/10/09 12:38:31;;;;;;;4.65;2.00;;;;;;;24.01;35.57;100298.56;12219011;19;20464;-83
2022/10/09 12:42:33;;;;;;;4.20;1.65;;;;;;;24.06;34.24;100294.75;12194314;19;20006;-82
2022/10/09 12:46:37;;;;;;;;;;;;;;;24.24;34.95;100288.00;12219372;19;20007;-82
2022/10/09 12:50:39;;;;;;;4.32;1.50;;;;;;;24.68;34.01;100286.03;12197026;19;19911;-82
2022/10/09 12:54:43;;;;;;;1.77;1.17;;;;;;;25.04;33.35;100272.69;12215565;19;20037;-82
2022/10/09 12:58:45;;;;;;;3.10;1.40;;;;;;;24.78;33.12;100274.44;12218591;19;20103;-82
2022/10/09 13:02:46;;;;;;;3.90;1.35;;;;;;;23.57;34.40;100269.47;12195619;19;20011;-81
2022/10/09 13:06:50;;;;;;;3.60;1.42;;;;;;;22.47;36.05;100258.91;12205871;19;20010;-82
2022/10/09 13:10:53;;;;;;;3.88;1.73;;;;;;;21.76;36.77;100250.97;12213194;19;20034;-81
2022/10/09 13:14:58;;;;;;;3.70;1.77;;;;;;;21.33;37.59;100242.06;12203381;19;20793;-82
2022/10/09 13:19:03;;;;;;;4.28;1.65;;;;;;;21.01;38.01;100238.19;12234467;19;20496;-81
2022/10/09 13:23:05;;;;;;;5.18;1.50;;;;;;;20.66;38.34;100245.25;12207533;19;20006;-81
2022/10/09 13:27:09;;;;;;;4.07;1.77;;;;;;;20.50;38.98;100227.88;12183263;19;20010;-81
2022/10/09 13:31:11;;;;;;;4.25;1.70;;;;;;;19.96;39.92;100224.53;12206820;19;20006;-81
2022/10/09 13:35:12;;;;;;;6.17;2.43;;;;;;;19.62;40.63;100221.06;12203039;19;20006;-81
2022/10/09 13:39:15;;;;;;;5.07;1.50;;;;;;;19.31;41.55;100215.88;12178197;19;20479;-80
2022/10/09 13:43:20;;;;;;;;;;;;;;;18.79;42.75;100203.59;12202058;19;20467;-80
2022/10/09 13:47:22;;;;;;;3.40;1.60;;;;;;;18.54;43.59;100199.09;12204320;19;19943;-82
2022/10/09 13:51:25;;;;;;;4.03;2.00;;;;;;;18.37;43.96;100191.13;12181978;19;20933;-81
2022/10/09 13:55:27;;;;;;;3.40;1.80;;;;;;;18.34;44.25;100177.78;12202670;19;20018;-81
2022/10/09 13:59:30;;;;;;;3.58;1.80;;;;;;;18.28;44.89;100181.75;12204281;19;20010;-81
2022/10/09 14:03:32;;;;;;;5.55;2.10;;;;;;;18.20;45.50;100184.03;12181446;19;20018;-80
2022/10/09 14:07:34;;;;;;;5.38;1.92;;;;;;;18.10;46.18;100178.53;12199711;19;20002;-82
2022/10/09 14:11:35;;;;;;;4.40;1.80;;;;;;;17.94;46.82;100163.06;12178381;19;20014;-84
2022/10/09 14:15:39;;;;;;;5.72;2.30;;;;;;;17.85;47.10;100167.59;12204308;19;20448;-83
2022/10/09 14:19:40;;;;;;;3.58;1.63;;;;;;;17.84;47.40;100149.19;12197721;19;20345;-83
2022/10/09 14:23:42;;;;;;;4.90;2.13;;;;;;;17.94;47.63;100158.31;12170260;19;20082;-83
2022/10/09 14:27:44;;;;;;;5.57;1.80;;;;;;;18.09;47.20;100146.19;12201908;19;20034;-83
2022/10/09 14:31:49;;;;;;;4.70;2.03;;;;;;;18.12;47.37;100148.41;12200296;19;20018;-82
2022/10/09 14:35:50;;;;;;;3.35;1.90;;;;;;;18.12;47.27;100134.47;12179568;19;20020;-83
2022/10/09 14:39:52;;;;;;;4.13;2.20;;;;;;;18.15;47.19;100139.44;12202987;19;20018;-82
2022/10/09 14:43:58;;;;;;;5.80;1.75;;;;;;;18.21;47.90;100135.50;12202535;19;20134;-81
2022/10/09 14:47:59;;;;;;;5.00;1.67;;;;;;;18.35;48.33;100124.50;12183418;19;20063;-80
2022/10/09 14:52:01;;;;;;;4.90;1.95;;;;;;;18.42;48.22;100118.56;12214512;19;20425;-82
2022/10/09 14:56:05;;;;;;;4.30;1.55;;;;;;;18.40;48.39;100118.00;12216004;19;20458;-81
2022/10/09 15:00:07;;;;;;;3.33;1.70;;;;;;;18.37;48.60;100115.81;12195191;19;20102;-81
2022/10/09 15:04:09;;;;;;;2.85;1.70;;;;;;;18.34;48.69;100113.63;12217737;19;20010;-82
2022/10/09 15:08:11;;;;;;;2.40;1.40;;;;;;;18.35;48.71;100104.09;12218175;19;20046;-82
2022/10/09 15:12:12;;;;;;;5.32;2.40;;;;;;;18.32;48.85;100111.13;12189981;19;20526;-82
2022/10/09 15:16:17;;;;;;;5.55;2.17;;;;;;;18.19;49.71;100107.06;12215371;19;20018;-82
2022/10/09 15:20:18;;;;;;;5.32;1.52;;;;;;;18.00;49.46;100097.75;12213246;19;20034;-82
2022/10/09 15:24:20;;;;;;;3.60;2.60;;;;;;;17.83;50.16;100087.03;12184794;19;20010;-81
2022/10/09 15:28:22;;;;;;;3.97;1.80;;;;;;;17.68;50.41;100078.75;12214010;19;20006;-82
2022/10/09 15:32:23;;;;;;;3.30;1.80;;;;;;;17.50;51.04;100085.84;12210619;19;20006;-80
2022/10/09 15:36:26;;;;;;;5.35;2.35;;;;;;;17.36;51.81;100076.47;12192722;19;20018;-83
2022/10/09 15:40:27;;;;;;;7.70;1.90;;;;;;;17.25;52.08;100070.97;12212366;19;20033;-80
2022/10/09 15:44:29;;;;;;;3.10;1.80;;;;;;;17.14;52.06;100077.72;12213434;19;20050;-80
2022/10/09 15:48:32;;;;;;;4.13;2.13;;;;;;;17.05;52.95;100068.31;12201094;19;20102;-83
2022/10/09 15:52:34;;;;;;;4.50;2.03;;;;;;;16.89;53.45;100063.91;12229599;19;20714;-81
2022/10/09 15:56:36;;;;;;;2.83;1.60;;;;;;;16.77;54.07;100053.94;12211966;19;20524;-82
2022/10/09 16:00:46;;;;;;;4.82;1.95;;;;;;;16.62;55.15;100059.56;12227529;19;20003;-83
2022/10/09 16:04:47;;;;;;;4.72;1.60;;;;;;;16.45;55.98;100050.69;12227746;19;20383;-82
2022/10/09 16:08:49;;;;;;;4.05;2.13;;;;;;;16.29;56.82;100041.59;12203214;19;20018;-82
2022/10/09 16:12:53;;;;;;;6.25;2.63;;;;;;;16.14;57.47;100042.44;12220779;19;20013;-81
2022/10/09 16:16:56;;;;;;;7.95;4.13;;;;;;;15.92;58.49;100040.00;12225142;19;20026;-81
2022/10/09 16:21:05;;;;;;;3.67;2.60;;;;;;;15.70;59.97;100041.13;12201811;19;20523;-82
2022/10/09 16:25:07;;;;;;;12.75;5.53;;;;;;;15.46;60.95;100038.00;12215944;19;20010;-82
2022/10/09 16:29:09;;;;;;;18.57;10.13;;;;;;;15.26;61.52;100038.84;12224249;19;20022;-82
2022/10/09 16:33:10;;;;;;;11.52;4.22;;;;;;;15.09;62.73;100042.97;12199698;19;20010;-82
2022/10/09 16:37:13;;;;;;;14.35;5.45;;;;;;;14.86;63.98;100031.25;12224384;19;20006;-82
2022/10/09 16:41:18;;;;;;;7.45;2.47;;;;;;;14.64;65.37;100042.56;12221520;19;20527;-81
2022/10/09 16:45:20;;;;;;;4.80;2.53;;;;;;;14.42;66.38;100037.13;12197402;19;20065;-82
2022/10/09 16:49:21;;;;;;;3.60;2.10;;;;;;;14.19;67.63;100043.09;12221334;19;20002;-81
2022/10/09 16:53:25;;;;;;;6.32;2.00;;;;;;;13.97;68.53;100046.03;12221537;19;20018;-82
2022/10/09 16:57:27;;;;;;;5.97;1.88;;;;;;;13.77;69.26;100047.56;12207338;19;20010;-81
2022/10/09 17:01:31;;;;;;;4.28;2.25;;;;;;;13.55;70.57;100041.28;12255230;19;20036;-79
2022/10/09 17:05:37;;;;;;;7.13;3.03;;;;;;;13.37;72.12;100040.56;12247989;19;20046;-83
2022/10/09 17:09:40;;;;;;;5.20;2.30;;;;;;;13.18;72.55;100042.84;12209237;19;20020;-83
2022/10/09 17:13:42;;;;;;;4.63;2.40;;;;;;;13.03;73.29;100039.94;12221648;19;20012;-83
2022/10/09 17:17:43;;;;;;;4.90;2.20;;;;;;;12.89;74.17;100038.66;12200157;19;20132;-82
2022/10/09 17:21:45;;;;;;;4.10;2.30;;;;;;;12.74;75.17;100034.63;12219419;19;20030;-84
2022/10/09 17:25:47;;;;;;;5.88;2.63;;;;;;;12.60;75.94;100030.56;12217797;19;20483;-83
2022/10/09 17:29:48;;;;;;;5.55;2.17;;;;;;;12.46;76.31;100030.16;12198493;19;20471;-83
2022/10/09 17:33:57;;;;;;;6.25;2.25;;;;;;;12.33;77.04;100033.28;12219878;19;20014;-83
2022/10/09 17:37:58;;;;;;;4.38;2.15;;;;;;;12.19;77.58;100038.31;12215242;19;20010;-82
2022/10/09 17:42:00;;;;;;;4.72;2.28;;;;;;;12.04;78.51;100027.06;12191220;19;20042;-82
2022/10/09 17:46:02;;;;;;;5.38;2.20;;;;;;;11.92;79.01;100029.09;12219685;19;20099;-83
2022/10/09 17:50:04;;;;;;;7.65;2.60;;;;;;;11.80;80.00;100030.00;12215746;19;20026;-83
2022/10/09 17:54:10;;;;;;;8.17;2.60;;;;;;;11.72;80.72;100024.94;12194513;19;20003;-83
2022/10/09 17:58:12;;;;;;;5.45;2.53;;;;;;;11.62;82.04;100017.31;12212116;19;20010;-82
2022/10/09 18:02:14;;;;;;;5.15;2.33;;;;;;;11.55;83.28;100022.16;12214938;19;20018;-82
2022/10/09 18:06:17;;;;;;;7.32;2.47;;;;;;;11.51;83.67;100022.91;12193282;19;20027;-82
2022/10/09 18:10:20;;;;;;;4.97;2.70;;;;;;;11.47;83.94;100013.47;12216787;19;20027;-83
2022/10/09 18:14:21;;;;;;;5.40;4.90;;;;;;;11.45;84.00;100026.66;12214854;19;20011;-84
2022/10/09 18:18:23;;;;;;;6.78;3.13;;;;;;;11.41;84.70;100027.16;12196649;19;20111;-84
2022/10/09 18:22:24;;;;;;;6.68;2.72;;;;;;;11.37;85.49;100023.25;12214333;19;20037;-83
2022/10/09 18:26:26;;;;;;;5.05;2.78;;;;;;;11.35;86.23;100010.78;12224172;19;20014;-84
2022/10/09 18:30:28;;;;;;;12.93;3.25;;;;;;;11.34;86.35;100009.13;12206814;19;20033;-83
2022/10/09 18:34:29;;;;;;;9.00;2.78;;;;;;;11.33;87.01;100012.94;12225738;19;20503;-83
2022/10/09 18:38:35;;;;;;;5.40;3.17;;;;;;;11.31;87.04;100017.91;12227650;19;20019;-84
2022/10/09 18:42:36;;;;;;;10.95;3.05;;;;;;;11.25;88.06;100008.69;12218715;19;20033;-85
2022/10/09 18:46:41;;;;;;;7.40;2.83;;;;;;;11.23;87.63;100008.09;12224170;19;20011;-83